createdAt,value
2023-03-24T00:00:02.513Z,622.98
2023-03-24T00:01:02.511Z,622.97
2023-03-24T00:02:02.517Z,622.95
2023-03-24T00:03:02.759Z,622.92
2023-03-24T00:04:02.626Z,622.93
2023-03-24T00:05:02.480Z,622.95
2023-03-24T00:06:02.460Z,622.97
2023-03-24T00:07:02.444Z,622.96
2023-03-24T00:08:02.626Z,622.94
2023-03-24T00:09:02.416Z,622.96
2023-03-24T00:10:02.440Z,622.96
2023-03-24T00:11:02.418Z,622.95
2023-03-24T00:12:02.404Z,622.97
2023-03-24T00:13:02.400Z,622.97
2023-03-24T00:14:02.377Z,622.96
2023-03-24T00:15:02.370Z,622.97
2023-03-24T00:16:02.373Z,622.98
2023-03-24T00:17:02.344Z,622.98
2023-03-24T00:18:02.364Z,622.94
2023-03-24T00:19:02.332Z,622.95
2023-03-24T00:20:02.309Z,622.96
2023-03-24T00:21:02.298Z,622.95
2023-03-24T00:22:02.354Z,622.93
2023-03-24T00:23:02.265Z,622.97
2023-03-24T00:24:02.252Z,622.95
2023-03-24T00:25:02.259Z,622.96
2023-03-24T00:26:02.238Z,622.96
2023-03-24T00:27:02.236Z,622.96
2023-03-24T00:28:02.219Z,622.96
2023-03-24T00:29:02.213Z,622.95
2023-03-24T00:30:02.185Z,622.95
2023-03-24T00:31:02.247Z,622.94
2023-03-24T00:32:02.163Z,622.95
2023-03-24T00:33:02.230Z,622.95
2023-03-24T00:34:02.142Z,622.97
2023-03-24T00:35:02.161Z,622.96
2023-03-24T00:36:02.185Z,622.95
2023-03-24T00:37:02.134Z,622.98
2023-03-24T00:38:02.104Z,622.98
2023-03-24T00:39:02.104Z,622.98
2023-03-24T00:40:02.081Z,622.98
2023-03-24T00:41:02.079Z,622.98
2023-03-24T00:42:02.065Z,622.98
2023-03-24T00:43:09.058Z,622.96
2023-03-24T00:44:02.046Z,622.96
2023-03-24T00:45:02.030Z,622.97
2023-03-24T00:46:02.019Z,622.93
2023-03-24T00:47:02.047Z,622.95
2023-03-24T00:48:02.017Z,622.96
2023-03-24T00:49:02.003Z,622.96
2023-03-24T00:50:02.070Z,622.98
2023-03-24T00:51:01.982Z,622.98
2023-03-24T00:52:01.982Z,622.98
2023-03-24T00:53:01.956Z,622.95
2023-03-24T00:54:01.992Z,622.94
2023-03-24T00:55:01.939Z,622.93
2023-03-24T00:56:01.935Z,622.92
2023-03-24T00:57:01.927Z,622.95
2023-03-24T00:58:01.905Z,622.96
2023-03-24T00:59:01.899Z,622.97
2023-03-24T01:00:01.886Z,622.98
2023-03-24T01:01:01.894Z,622.99
2023-03-24T01:02:01.891Z,622.99
2023-03-24T01:03:01.874Z,622.97
2023-03-24T01:04:01.830Z,622.97
2023-03-24T01:05:01.823Z,622.97
2023-03-24T01:06:03.184Z,622.93
2023-03-24T01:07:01.840Z,622.96
2023-03-24T01:08:01.791Z,622.96
2023-03-24T01:09:01.780Z,622.98
2023-03-24T01:10:01.769Z,622.98
2023-03-24T01:11:01.743Z,622.96
2023-03-24T01:12:01.738Z,622.96
2023-03-24T01:13:01.745Z,622.96
2023-03-24T01:14:01.703Z,622.96
2023-03-24T01:15:01.706Z,622.96
2023-03-24T01:16:01.749Z,622.96
2023-03-24T01:17:01.672Z,622.95
2023-03-24T01:18:01.709Z,622.94
2023-03-24T01:19:01.656Z,622.97
2023-03-24T01:20:01.636Z,622.96
2023-03-24T01:21:01.641Z,622.97
2023-03-24T01:22:01.635Z,622.97
2023-03-24T01:23:01.643Z,622.98
2023-03-24T01:24:01.648Z,622.98
2023-03-24T01:25:01.584Z,622.98
2023-03-24T01:26:01.581Z,622.96
2023-03-24T01:27:01.583Z,622.96
2023-03-24T01:28:01.554Z,622.97
2023-03-24T01:29:01.549Z,622.97
2023-03-24T01:30:01.547Z,622.96
2023-03-24T01:31:01.536Z,622.98
2023-03-24T01:32:01.571Z,622.97
2023-03-24T01:33:01.565Z,622.96
2023-03-24T01:34:01.527Z,622.98
2023-03-24T01:35:01.477Z,622.98
2023-03-24T01:36:01.481Z,622.97
2023-03-24T01:37:01.464Z,622.97
2023-03-24T01:38:01.462Z,622.97
2023-03-24T01:39:01.616Z,622.96
2023-03-24T01:40:01.423Z,622.95
2023-03-24T01:41:01.433Z,622.95
2023-03-24T01:42:01.397Z,622.92
2023-03-24T01:43:01.424Z,622.93
2023-03-24T01:44:01.403Z,622.95
2023-03-24T01:45:01.385Z,622.97
2023-03-24T01:46:01.497Z,622.98
2023-03-24T01:47:01.377Z,622.95
2023-03-24T01:48:01.433Z,622.96
2023-03-24T01:49:01.360Z,622.96
2023-03-24T01:50:01.365Z,622.97
2023-03-24T01:51:01.413Z,622.97
2023-03-24T01:52:01.301Z,622.98
2023-03-24T01:53:01.289Z,622.98
2023-03-24T01:54:01.273Z,622.99
2023-03-24T01:55:01.288Z,622.95
2023-03-24T01:56:01.250Z,622.95
2023-03-24T01:57:01.339Z,622.98
2023-03-24T01:58:01.263Z,622.98
2023-03-24T01:59:01.233Z,622.97
2023-03-24T02:00:01.209Z,622.98
2023-03-24T02:01:01.224Z,622.99
2023-03-24T02:02:01.189Z,622.96
2023-03-24T02:03:01.220Z,622.94
2023-03-24T02:04:01.200Z,622.96
2023-03-24T02:05:01.191Z,622.98
2023-03-24T02:06:01.137Z,622.96
2023-03-24T02:07:01.134Z,622.95
2023-03-24T02:08:01.120Z,622.96
2023-03-24T02:09:01.119Z,622.98
2023-03-24T02:10:01.137Z,622.97
2023-03-24T02:11:01.217Z,622.96
2023-03-24T02:12:01.079Z,622.96
2023-03-24T02:13:01.087Z,622.94
2023-03-24T02:14:01.071Z,622.96
2023-03-24T02:15:01.073Z,622.97
2023-03-24T02:16:01.160Z,622.95
2023-03-24T02:17:01.029Z,622.97
2023-03-24T02:18:01.046Z,622.96
2023-03-24T02:19:01.028Z,622.98
2023-03-24T02:20:00.999Z,622.98
2023-03-24T02:21:01.003Z,622.97
2023-03-24T02:22:00.973Z,622.96
2023-03-24T02:23:00.979Z,622.98
2023-03-24T02:24:00.962Z,622.98
2023-03-24T02:25:00.967Z,622.97
2023-03-24T02:26:00.936Z,622.98
2023-03-24T02:27:00.932Z,622.98
2023-03-24T02:28:00.925Z,622.96
2023-03-24T02:29:00.903Z,622.96
2023-03-24T02:30:00.950Z,622.98
2023-03-24T02:31:00.892Z,622.97
2023-03-24T02:32:00.905Z,622.99
2023-03-24T02:33:00.951Z,622.99
2023-03-24T02:34:00.845Z,622.99
2023-03-24T02:35:00.842Z,622.98
2023-03-24T02:36:00.893Z,622.98
2023-03-24T02:37:00.812Z,622.95
2023-03-24T02:38:00.807Z,622.96
2023-03-24T02:39:00.807Z,622.94
2023-03-24T02:40:00.800Z,622.91
2023-03-24T02:41:00.799Z,622.94
2023-03-24T02:42:00.770Z,622.95
2023-03-24T02:43:00.767Z,622.95
2023-03-24T02:44:08.935Z,622.98
2023-03-24T02:45:00.729Z,622.97
2023-03-24T02:46:00.744Z,622.97
2023-03-24T02:47:00.694Z,622.95
2023-03-24T02:48:00.717Z,622.93
2023-03-24T02:49:00.673Z,622.93
2023-03-24T02:50:00.701Z,622.94
2023-03-24T02:51:00.650Z,622.93
2023-03-24T02:52:00.658Z,622.95
2023-03-24T02:53:00.644Z,622.96
2023-03-24T02:54:00.641Z,622.96
2023-03-24T02:55:00.612Z,622.95
2023-03-24T02:56:00.613Z,622.97
2023-03-24T02:57:00.591Z,622.97
2023-03-24T02:58:00.588Z,622.96
2023-03-24T02:59:00.590Z,622.96
2023-03-24T03:00:00.576Z,622.97
2023-03-24T03:01:00.592Z,622.97
2023-03-24T03:02:00.538Z,622.94
2023-03-24T03:03:00.628Z,622.93
2023-03-24T03:04:00.551Z,622.94
2023-03-24T03:05:00.496Z,622.95
2023-03-24T03:06:00.503Z,622.95
2023-03-24T03:07:00.483Z,622.97
2023-03-24T03:08:00.469Z,622.95
2023-03-24T03:09:00.452Z,622.96
2023-03-24T03:10:00.460Z,622.98
2023-03-24T03:11:00.444Z,622.98
2023-03-24T03:12:00.427Z,622.97
2023-03-24T03:13:00.422Z,622.95
2023-03-24T03:14:00.447Z,622.96
2023-03-24T03:15:00.433Z,622.95
2023-03-24T03:16:00.414Z,622.98
2023-03-24T03:17:00.398Z,623.00
2023-03-24T03:18:00.395Z,623.01
2023-03-24T03:19:00.345Z,622.99
2023-03-24T03:20:00.906Z,622.99
2023-03-24T03:21:00.334Z,622.98
2023-03-24T03:22:00.367Z,622.97
2023-03-24T03:23:00.337Z,622.98
2023-03-24T03:24:00.343Z,622.97
2023-03-24T03:25:00.290Z,622.97
2023-03-24T03:26:00.289Z,622.97
2023-03-24T03:27:00.278Z,622.97
2023-03-24T03:28:00.262Z,622.97
2023-03-24T03:29:00.268Z,622.98
2023-03-24T03:30:00.381Z,622.98
2023-03-24T03:31:00.293Z,622.97
2023-03-24T03:32:00.227Z,622.97
2023-03-24T03:33:00.318Z,622.98
2023-03-24T03:34:00.189Z,622.97
2023-03-24T03:35:00.197Z,622.98
2023-03-24T03:36:00.207Z,622.97
2023-03-24T03:37:00.154Z,622.96
2023-03-24T03:38:00.145Z,622.95
2023-03-24T03:39:00.154Z,622.96
2023-03-24T03:40:00.177Z,622.95
2023-03-24T03:41:00.137Z,622.97
2023-03-24T03:42:00.109Z,622.96
2023-03-24T03:43:00.138Z,622.95
2023-03-24T03:44:00.148Z,622.98
2023-03-24T03:45:00.126Z,622.97
2023-03-24T03:46:00.120Z,622.98
2023-03-24T03:47:00.097Z,622.97
2023-03-24T03:48:00.101Z,622.97
2023-03-24T03:49:00.027Z,622.99
2023-03-24T03:50:00.047Z,622.99
2023-03-24T03:51:12.377Z,622.98
2023-03-24T03:52:00.005Z,622.99
2023-03-24T03:52:59.986Z,622.98
2023-03-24T03:53:59.994Z,622.98
2023-03-24T03:54:59.997Z,622.99
2023-03-24T03:55:59.978Z,622.99
2023-03-24T03:57:00.009Z,622.98
2023-03-24T03:57:59.931Z,622.95
2023-03-24T03:58:59.917Z,622.97
2023-03-24T03:59:59.920Z,622.96
2023-03-24T04:00:59.929Z,622.96
2023-03-24T04:01:59.939Z,622.93
2023-03-24T04:03:00.022Z,622.96
2023-03-24T04:03:59.929Z,622.95
2023-03-24T04:05:06.587Z,622.96
2023-03-24T04:06:00.850Z,622.95
2023-03-24T04:06:59.836Z,622.97
2023-03-24T04:07:59.839Z,622.98
2023-03-24T04:08:59.808Z,622.98
2023-03-24T04:09:59.819Z,622.96
2023-03-24T04:10:59.788Z,622.96
2023-03-24T04:11:59.787Z,622.96
2023-03-24T04:12:59.792Z,622.95
2023-03-24T04:13:59.767Z,622.97
2023-03-24T04:14:59.757Z,622.96
2023-03-24T04:15:59.792Z,622.97
2023-03-24T04:16:59.725Z,622.98
2023-03-24T04:17:59.759Z,622.98
2023-03-24T04:18:59.729Z,622.96
2023-03-24T04:19:59.713Z,622.96
2023-03-24T04:20:59.684Z,622.96
2023-03-24T04:21:59.682Z,622.94
2023-03-24T04:22:59.677Z,622.96
2023-03-24T04:23:59.667Z,622.94
2023-03-24T04:24:59.635Z,622.93
2023-03-24T04:25:59.636Z,622.96
2023-03-24T04:26:59.630Z,622.96
2023-03-24T04:27:59.606Z,622.95
2023-03-24T04:28:59.591Z,622.96
2023-03-24T04:29:59.597Z,622.98
2023-03-24T04:30:59.579Z,622.97
2023-03-24T04:31:59.596Z,622.96
2023-03-24T04:32:59.576Z,622.94
2023-03-24T04:33:59.558Z,622.95
2023-03-24T04:34:59.557Z,622.97
2023-03-24T04:35:59.541Z,622.96
2023-03-24T04:36:59.505Z,622.98
2023-03-24T04:37:59.514Z,622.97
2023-03-24T04:38:59.481Z,622.97
2023-03-24T04:39:59.481Z,622.94
2023-03-24T04:40:59.471Z,622.96
2023-03-24T04:41:59.464Z,622.96
2023-03-24T04:42:59.446Z,622.98
2023-03-24T04:43:59.440Z,622.95
2023-03-24T04:45:06.954Z,622.95
2023-03-24T04:45:59.429Z,622.95
2023-03-24T04:46:59.409Z,622.95
2023-03-24T04:47:59.446Z,622.92
2023-03-24T04:48:59.483Z,622.96
2023-03-24T04:49:59.373Z,622.95
2023-03-24T04:50:59.375Z,622.96
2023-03-24T04:51:59.381Z,622.98
2023-03-24T04:52:59.336Z,622.98
2023-03-24T04:53:59.332Z,622.97
2023-03-24T04:54:59.341Z,622.95
2023-03-24T04:55:59.304Z,622.95
2023-03-24T04:56:59.319Z,622.98
2023-03-24T04:57:59.292Z,622.96
2023-03-24T04:58:59.271Z,622.94
2023-03-24T04:59:59.260Z,622.95
2023-03-24T05:00:59.267Z,622.92
2023-03-24T05:01:59.252Z,622.94
2023-03-24T05:02:59.325Z,622.92
2023-03-24T05:03:59.217Z,622.93
2023-03-24T05:04:59.210Z,622.93
2023-03-24T05:05:59.243Z,622.94
2023-03-24T05:06:59.196Z,622.94
2023-03-24T05:07:59.182Z,622.95
2023-03-24T05:08:59.190Z,622.93
2023-03-24T05:09:59.155Z,622.93
2023-03-24T05:10:59.134Z,622.94
2023-03-24T05:12:01.420Z,622.95
2023-03-24T05:12:59.130Z,622.90
2023-03-24T05:13:59.105Z,622.95
2023-03-24T05:14:59.130Z,622.95
2023-03-24T05:15:59.106Z,622.93
2023-03-24T05:16:59.107Z,622.96
2023-03-24T05:17:59.116Z,622.94
2023-03-24T05:18:59.076Z,622.96
2023-03-24T05:19:59.038Z,622.97
2023-03-24T05:20:59.053Z,622.95
2023-03-24T05:21:59.017Z,622.93
2023-03-24T05:22:59.052Z,622.95
2023-03-24T05:23:58.996Z,622.92
2023-03-24T05:24:58.984Z,622.95
2023-03-24T05:25:58.982Z,622.95
2023-03-24T05:26:58.969Z,622.96
2023-03-24T05:27:58.962Z,622.95
2023-03-24T05:28:58.951Z,622.90
2023-03-24T05:29:58.946Z,622.91
2023-03-24T05:30:58.941Z,622.89
2023-03-24T05:31:58.915Z,622.93
2023-03-24T05:32:58.927Z,622.94
2023-03-24T05:33:58.900Z,622.93
2023-03-24T05:34:58.876Z,622.93
2023-03-24T05:35:58.996Z,622.95
2023-03-24T05:36:58.883Z,622.97
2023-03-24T05:37:58.884Z,622.93
2023-03-24T05:38:59.015Z,622.92
2023-03-24T05:39:58.824Z,622.91
2023-03-24T05:40:58.824Z,622.93
2023-03-24T05:41:58.817Z,622.94
2023-03-24T05:42:58.797Z,622.93
2023-03-24T05:43:58.811Z,622.95
2023-03-24T05:44:58.783Z,622.88
2023-03-24T05:45:58.784Z,622.91
2023-03-24T05:46:58.756Z,622.89
2023-03-24T05:47:58.776Z,622.89
2023-03-24T05:48:58.727Z,622.90
2023-03-24T05:49:58.727Z,622.89
2023-03-24T05:50:58.702Z,622.89
2023-03-24T05:51:58.704Z,622.91
2023-03-24T05:52:58.706Z,622.94
2023-03-24T05:53:58.670Z,622.95
2023-03-24T05:54:58.690Z,622.91
2023-03-24T05:55:58.686Z,622.91
2023-03-24T05:56:58.702Z,622.91
2023-03-24T05:58:00.313Z,622.92
2023-03-24T05:58:58.622Z,622.91
2023-03-24T05:59:58.618Z,622.94
2023-03-24T06:00:58.591Z,622.92
2023-03-24T06:01:58.637Z,622.92
2023-03-24T06:02:58.694Z,622.91
2023-03-24T06:03:58.715Z,622.88
2023-03-24T06:04:58.544Z,622.90
2023-03-24T06:05:58.564Z,622.93
2023-03-24T06:06:58.542Z,622.94
2023-03-24T06:07:58.518Z,622.93
2023-03-24T06:08:58.530Z,622.94
2023-03-24T06:09:58.514Z,622.90
2023-03-24T06:10:58.499Z,622.93
2023-03-24T06:11:58.542Z,622.94
2023-03-24T06:12:58.459Z,622.91
2023-03-24T06:13:58.458Z,622.90
2023-03-24T06:14:58.463Z,622.91
2023-03-24T06:15:59.369Z,622.94
2023-03-24T06:16:58.428Z,622.89
2023-03-24T06:17:59.033Z,622.91
2023-03-24T06:18:58.400Z,622.92
2023-03-24T06:19:58.398Z,622.91
2023-03-24T06:20:58.386Z,622.89
2023-03-24T06:21:58.363Z,622.89
2023-03-24T06:22:58.348Z,622.92
2023-03-24T06:23:58.351Z,622.93
2023-03-24T06:24:58.332Z,622.91
2023-03-24T06:25:58.445Z,622.89
2023-03-24T06:26:59.331Z,622.89
2023-03-24T06:27:58.298Z,622.90
2023-03-24T06:28:58.325Z,622.88
2023-03-24T06:29:58.305Z,622.93
2023-03-24T06:30:58.292Z,622.92
2023-03-24T06:31:58.256Z,622.91
2023-03-24T06:32:58.363Z,622.87
2023-03-24T06:33:58.305Z,622.86
2023-03-24T06:34:58.238Z,622.84
2023-03-24T06:35:58.287Z,622.85
2023-03-24T06:36:58.229Z,622.86
2023-03-24T06:37:58.199Z,622.83
2023-03-24T06:38:58.201Z,622.85
2023-03-24T06:39:58.330Z,622.87
2023-03-24T06:40:59.046Z,622.89
2023-03-24T06:41:58.164Z,622.86
2023-03-24T06:42:58.159Z,622.84
2023-03-24T06:43:58.163Z,622.84
2023-03-24T06:44:58.126Z,622.86
2023-03-24T06:46:05.734Z,622.87
2023-03-24T06:46:58.109Z,622.84
2023-03-24T06:47:58.140Z,622.87
2023-03-24T06:48:58.185Z,622.84
2023-03-24T06:49:58.081Z,622.85
2023-03-24T06:50:58.197Z,622.86
2023-03-24T06:51:58.068Z,622.87
2023-03-24T06:52:58.065Z,622.84
2023-03-24T06:53:58.029Z,622.86
2023-03-24T06:54:58.029Z,622.83
2023-03-24T06:55:58.010Z,622.84
2023-03-24T06:56:58.055Z,622.85
2023-03-24T06:57:58.072Z,622.84
2023-03-24T06:58:58.027Z,622.84
2023-03-24T06:59:57.952Z,622.84
2023-03-24T07:00:57.990Z,622.85
2023-03-24T07:01:57.997Z,622.84
2023-03-24T07:02:58.091Z,622.85
2023-03-24T07:03:57.943Z,622.83
2023-03-24T07:04:57.912Z,622.85
2023-03-24T07:05:57.923Z,622.82
2023-03-24T07:07:17.538Z,622.85
2023-03-24T07:08:57.979Z,622.85
2023-03-24T07:09:57.867Z,622.87
2023-03-24T07:10:57.844Z,622.87
2023-03-24T07:11:57.831Z,622.86
2023-03-24T07:12:57.840Z,622.85
2023-03-24T07:13:57.979Z,622.86
2023-03-24T07:14:57.819Z,622.86
2023-03-24T07:15:57.838Z,622.83
2023-03-24T07:16:57.781Z,622.84
2023-03-24T07:17:57.844Z,622.85
2023-03-24T07:18:57.760Z,622.89
2023-03-24T07:19:57.749Z,622.88
2023-03-24T07:20:57.725Z,622.84
2023-03-24T07:21:57.718Z,622.85
2023-03-24T07:22:57.762Z,622.87
2023-03-24T07:23:57.729Z,622.85
2023-03-24T07:24:57.707Z,622.85
2023-03-24T07:25:57.795Z,622.86
2023-03-24T07:26:57.733Z,622.85
2023-03-24T07:27:57.677Z,622.87
2023-03-24T07:28:57.640Z,622.85
2023-03-24T07:29:57.654Z,622.86
2023-03-24T07:30:57.918Z,622.86
2023-03-24T07:31:57.614Z,622.88
2023-03-24T07:32:57.626Z,622.91
2023-03-24T07:33:59.747Z,622.89
2023-03-24T07:34:57.582Z,622.89
2023-03-24T07:35:57.678Z,622.90
2023-03-24T07:36:58.701Z,622.85
2023-03-24T07:37:57.549Z,622.86
2023-03-24T07:38:57.648Z,622.87
2023-03-24T07:39:57.525Z,622.87
2023-03-24T07:40:57.509Z,622.89
2023-03-24T07:41:57.517Z,622.90
2023-03-24T07:42:57.504Z,622.89
2023-03-24T07:43:57.490Z,622.86
2023-03-24T07:44:57.465Z,622.87
2023-03-24T07:45:57.504Z,622.85
2023-03-24T07:46:57.585Z,622.89
2023-03-24T07:47:57.518Z,622.88
2023-03-24T07:49:03.238Z,622.90
2023-03-24T07:49:57.413Z,622.90
2023-03-24T07:50:57.414Z,622.89
2023-03-24T07:51:57.598Z,622.89
2023-03-24T07:52:59.826Z,622.91
2023-03-24T07:53:57.545Z,622.86
2023-03-24T07:54:57.369Z,622.88
2023-03-24T07:55:57.393Z,622.92
2023-03-24T07:56:57.428Z,622.89
2023-03-24T07:57:57.360Z,622.88
2023-03-24T07:58:57.386Z,622.93
2023-03-24T07:59:57.325Z,622.91
2023-03-24T08:00:57.321Z,622.89
2023-03-24T08:01:59.795Z,622.87
2023-03-24T08:02:57.531Z,622.88
2023-03-24T08:03:57.396Z,622.91
2023-03-24T08:04:57.253Z,622.91
2023-03-24T08:05:57.609Z,622.87
2023-03-24T08:06:57.247Z,622.86
2023-03-24T08:07:57.290Z,622.88
2023-03-24T08:08:57.239Z,622.90
2023-03-24T08:09:57.214Z,622.87
2023-03-24T08:10:57.292Z,622.89
2023-03-24T08:11:58.983Z,622.87
2023-03-24T08:12:57.171Z,622.88
2023-03-24T08:13:57.146Z,622.94
2023-03-24T08:14:57.146Z,622.92
2023-03-24T08:15:57.170Z,622.88
2023-03-24T08:16:57.244Z,622.88
2023-03-24T08:17:57.199Z,622.93
2023-03-24T08:18:57.123Z,622.97
2023-03-24T08:20:00.407Z,622.99
2023-03-24T08:20:57.123Z,622.97
2023-03-24T08:21:57.156Z,622.98
2023-03-24T08:22:57.056Z,622.91
2023-03-24T08:23:57.256Z,622.95
2023-03-24T08:24:57.048Z,622.97
2023-03-24T08:25:57.020Z,622.97
2023-03-24T08:26:57.031Z,622.98
2023-03-24T08:27:57.017Z,622.96
2023-03-24T08:28:57.018Z,622.94
2023-03-24T08:29:56.992Z,622.95
2023-03-24T08:30:57.038Z,623.00
2023-03-24T08:31:57.158Z,622.97
2023-03-24T08:32:57.525Z,623.00
2023-03-24T08:33:57.952Z,623.00
2023-03-24T08:34:56.965Z,623.01
2023-03-24T08:35:57.011Z,622.99
2023-03-24T08:36:56.929Z,622.99
2023-03-24T08:37:56.903Z,623.03
2023-03-24T08:38:57.263Z,622.94
2023-03-24T08:39:56.858Z,622.91
2023-03-24T08:40:56.863Z,622.89
2023-03-24T08:41:56.860Z,622.90
2023-03-24T08:42:56.857Z,622.89
2023-03-24T08:43:56.821Z,622.93
2023-03-24T08:44:56.852Z,622.94
2023-03-24T08:45:56.901Z,622.91
2023-03-24T08:48:14.068Z,622.90
2023-03-24T08:49:14.002Z,622.97
2023-03-24T08:50:14.019Z,622.86
2023-03-24T08:51:14.036Z,622.90
2023-03-24T08:52:14.037Z,622.94
2023-03-24T08:53:13.968Z,622.97
2023-03-24T08:55:41.311Z,622.95
2023-03-24T08:56:40.733Z,623.03
2023-03-24T08:57:40.626Z,623.05
2023-03-24T08:58:40.680Z,622.92
2023-03-24T08:59:40.596Z,622.89
2023-03-24T09:00:40.911Z,622.98
2023-03-24T09:01:40.560Z,623.03
2023-03-24T09:02:40.638Z,622.98
2023-03-24T09:03:40.576Z,622.99
2023-03-24T09:04:40.560Z,622.98
2023-03-24T09:05:44.757Z,623.01
2023-03-24T09:06:41.488Z,623.03
2023-03-24T09:07:40.530Z,623.03
2023-03-24T09:08:40.495Z,622.99
2023-03-24T09:09:40.471Z,622.96
2023-03-24T09:10:40.494Z,622.96
2023-03-24T09:11:40.552Z,623.01
2023-03-24T09:12:40.469Z,623.04
2023-03-24T09:13:40.648Z,623.10
2023-03-24T09:14:40.446Z,623.29
2023-03-24T09:15:40.637Z,623.03
2023-03-24T09:16:40.387Z,622.98
2023-03-24T09:17:40.467Z,622.99
2023-03-24T09:18:40.383Z,623.06
2023-03-24T09:19:40.446Z,623.17
2023-03-24T09:20:40.328Z,623.12
2023-03-24T09:21:40.406Z,623.24
2023-03-24T09:22:42.733Z,623.62
2023-03-24T09:23:40.311Z,623.43
2023-03-24T09:24:40.323Z,623.23
2023-03-24T09:25:40.277Z,623.18
2023-03-24T09:26:40.284Z,623.33
2023-03-24T09:27:40.331Z,623.21
2023-03-24T09:28:40.302Z,623.30
2023-03-24T09:29:40.272Z,623.36
2023-03-24T09:30:40.258Z,623.20
2023-03-24T09:31:40.307Z,623.03
2023-03-24T09:32:40.247Z,623.01
2023-03-24T09:33:40.294Z,623.06
2023-03-24T09:34:40.294Z,623.04
2023-03-24T09:35:40.320Z,623.11
2023-03-24T09:36:40.156Z,623.04
2023-03-24T09:37:40.186Z,623.00
2023-03-24T09:38:40.158Z,623.02
2023-03-24T09:39:40.169Z,623.03
2023-03-24T09:40:40.124Z,623.04
2023-03-24T09:41:40.110Z,623.13
2023-03-24T09:42:40.480Z,623.26
2023-03-24T09:43:40.249Z,623.86
2023-03-24T09:44:41.337Z,623.15
2023-03-24T09:45:40.128Z,623.19
2023-03-24T09:46:40.115Z,623.12
2023-03-24T09:47:40.140Z,623.24
2023-03-24T09:48:40.041Z,623.82
2023-03-24T09:49:40.035Z,623.50
2023-03-24T09:50:40.060Z,623.12
2023-03-24T09:51:39.993Z,623.08
2023-03-24T09:52:39.985Z,623.06
2023-03-24T09:53:39.991Z,623.08
2023-03-24T09:54:40.046Z,623.12
2023-03-24T09:55:39.968Z,623.15
2023-03-24T09:56:40.018Z,623.50
2023-03-24T09:57:39.980Z,624.05
2023-03-24T09:58:39.922Z,623.79
2023-03-24T09:59:39.922Z,623.31
2023-03-24T10:00:39.935Z,623.26
2023-03-24T10:01:39.917Z,623.37
2023-03-24T10:02:39.969Z,623.51
2023-03-24T10:03:39.993Z,624.02
2023-03-24T10:04:39.852Z,624.44
2023-03-24T10:05:39.848Z,624.26
2023-03-24T10:06:39.979Z,624.52
2023-03-24T10:07:39.835Z,624.60
2023-03-24T10:08:39.820Z,624.07
2023-03-24T10:09:39.833Z,624.19
2023-03-24T10:10:39.801Z,623.51
2023-03-24T10:11:39.846Z,623.13
2023-03-24T10:12:39.753Z,623.00
2023-03-24T10:13:39.774Z,623.03
2023-03-24T10:14:39.728Z,623.07
2023-03-24T10:15:39.736Z,623.03
2023-03-24T10:16:39.799Z,623.05
2023-03-24T10:17:39.755Z,623.05
2023-03-24T10:18:39.726Z,623.12
2023-03-24T10:19:39.670Z,623.25
2023-03-24T10:20:39.733Z,623.05
2023-03-24T10:21:40.002Z,623.07
2023-03-24T10:22:39.685Z,623.13
2023-03-24T10:23:39.799Z,623.29
2023-03-24T10:24:39.626Z,623.32
2023-03-24T10:25:39.642Z,623.18
2023-03-24T10:26:39.615Z,623.19
2023-03-24T10:27:39.618Z,623.44
2023-03-24T10:28:39.575Z,624.04
2023-03-24T10:29:39.579Z,625.24
2023-03-24T10:30:39.572Z,625.10
2023-03-24T10:31:39.556Z,624.62
2023-03-24T10:32:39.582Z,624.65
2023-03-24T10:33:39.866Z,624.36
2023-03-24T10:34:39.534Z,623.59
2023-03-24T10:35:39.624Z,623.67
2023-03-24T10:36:39.543Z,623.48
2023-03-24T10:37:39.509Z,623.32
2023-03-24T10:38:39.637Z,623.74
2023-03-24T10:39:44.746Z,623.85
2023-03-24T10:40:39.473Z,623.49
2023-03-24T10:41:39.505Z,623.90
2023-03-24T10:42:39.430Z,623.67
2023-03-24T10:43:39.407Z,623.81
2023-03-24T10:44:39.399Z,623.52
2023-03-24T10:45:39.462Z,623.36
2023-03-24T10:46:39.420Z,623.67
2023-03-24T10:47:39.399Z,624.21
2023-03-24T10:48:39.403Z,624.10
2023-03-24T10:49:39.386Z,623.88
2023-03-24T10:50:39.341Z,623.89
2023-03-24T10:51:39.361Z,623.88
2023-03-24T10:52:39.381Z,624.13
2023-03-24T10:53:39.302Z,624.69
2023-03-24T10:54:39.305Z,624.68
2023-03-24T10:55:47.071Z,625.37
2023-03-24T10:56:39.334Z,624.31
2023-03-24T10:57:39.280Z,624.63
2023-03-24T10:58:39.260Z,625.99
2023-03-24T10:59:39.261Z,627.67
2023-03-24T11:00:40.465Z,628.00
2023-03-24T11:01:39.455Z,627.37
2023-03-24T11:02:39.308Z,626.64
2023-03-24T11:03:39.219Z,625.68
2023-03-24T11:04:39.188Z,625.10
2023-03-24T11:05:39.191Z,626.22
2023-03-24T11:06:39.167Z,626.54
2023-03-24T11:07:39.290Z,625.90
2023-03-24T11:08:39.204Z,626.49
2023-03-24T11:09:39.140Z,627.28
2023-03-24T11:10:39.243Z,626.65
2023-03-24T11:11:39.142Z,628.46
2023-03-24T11:12:39.127Z,629.05
2023-03-24T11:13:39.100Z,629.04
2023-03-24T11:14:39.099Z,629.35
2023-03-24T11:15:39.103Z,629.91
2023-03-24T11:16:39.150Z,630.61
2023-03-24T11:17:39.067Z,628.88
2023-03-24T11:18:39.123Z,629.71
2023-03-24T11:19:39.018Z,629.11
2023-03-24T11:20:39.036Z,628.28
2023-03-24T11:21:38.993Z,628.91
2023-03-24T11:22:38.983Z,629.18
2023-03-24T11:23:39.417Z,630.52
2023-03-24T11:24:38.975Z,631.50
2023-03-24T11:25:38.987Z,630.49
2023-03-24T11:26:39.023Z,630.56
2023-03-24T11:27:38.947Z,630.88
2023-03-24T11:28:38.966Z,630.68
2023-03-24T11:29:39.040Z,631.57
2023-03-24T11:30:38.945Z,630.49
2023-03-24T11:31:38.876Z,631.62
2023-03-24T11:32:38.886Z,630.96
2023-03-24T11:33:38.874Z,631.12
2023-03-24T11:34:38.935Z,631.52
2023-03-24T11:35:42.161Z,629.74
2023-03-24T11:36:38.890Z,629.28
2023-03-24T11:37:38.809Z,629.30
2023-03-24T11:38:38.797Z,629.91
2023-03-24T11:39:38.793Z,631.23
2023-03-24T11:40:39.651Z,631.06
2023-03-24T11:41:38.782Z,630.97
2023-03-24T11:42:38.904Z,631.61
2023-03-24T11:43:38.797Z,631.99
2023-03-24T11:44:38.769Z,630.81
2023-03-24T11:45:38.738Z,631.29
2023-03-24T11:46:38.781Z,632.41
2023-03-24T11:47:38.780Z,632.71
2023-03-24T11:48:41.225Z,631.35
2023-03-24T11:49:38.773Z,631.42
2023-03-24T11:50:38.688Z,631.03
2023-03-24T11:51:38.663Z,630.38
2023-03-24T11:52:38.672Z,630.07
2023-03-24T11:53:38.668Z,630.29
2023-03-24T11:54:38.631Z,631.42
2023-03-24T11:55:38.631Z,632.20
2023-03-24T11:56:38.642Z,632.99
2023-03-24T11:57:38.622Z,633.35
2023-03-24T11:58:38.607Z,632.17
2023-03-24T11:59:38.567Z,632.66
2023-03-24T12:00:38.564Z,632.77
2023-03-24T12:01:38.617Z,632.38
2023-03-24T12:02:38.697Z,631.78
2023-03-24T12:03:38.631Z,632.00
2023-03-24T12:04:38.522Z,631.76
2023-03-24T12:05:38.574Z,631.95
2023-03-24T12:06:38.531Z,632.13
2023-03-24T12:07:38.509Z,633.08
2023-03-24T12:08:38.519Z,634.24
2023-03-24T12:09:38.483Z,632.47
2023-03-24T12:10:38.454Z,632.16
2023-03-24T12:11:38.442Z,633.55
2023-03-24T12:12:38.445Z,633.38
2023-03-24T12:13:38.491Z,633.71
2023-03-24T12:14:38.419Z,632.84
2023-03-24T12:15:38.413Z,633.18
2023-03-24T12:16:40.195Z,633.92
2023-03-24T12:17:39.590Z,634.12
2023-03-24T12:18:38.410Z,634.90
2023-03-24T12:19:38.368Z,634.51
2023-03-24T12:20:38.409Z,638.50
2023-03-24T12:21:38.331Z,639.66
2023-03-24T12:22:39.166Z,638.43
2023-03-24T12:23:38.305Z,639.84
2023-03-24T12:24:38.303Z,640.77
2023-03-24T12:25:38.302Z,639.55
2023-03-24T12:26:38.287Z,639.81
2023-03-24T12:27:38.376Z,641.21
2023-03-24T12:28:38.258Z,642.56
2023-03-24T12:29:38.263Z,641.81
2023-03-24T12:30:38.280Z,639.31
2023-03-24T12:31:38.316Z,641.00